createdAt,value
2023-04-29T00:00:18.907Z,98050.00
2023-04-29T00:02:47.098Z,98055.00
2023-04-29T00:05:15.300Z,98056.00
2023-04-29T00:07:44.165Z,98056.00
2023-04-29T00:10:14.757Z,98067.00
2023-04-29T00:12:44.137Z,98054.00
2023-04-29T00:15:12.490Z,98052.00
2023-04-29T00:17:40.697Z,98057.00
2023-04-29T00:20:10.450Z,98058.00
2023-04-29T00:22:41.500Z,98052.00
2023-04-29T00:25:11.056Z,98056.00
2023-04-29T00:27:39.460Z,98059.00
2023-04-29T00:30:10.435Z,98059.00
2023-04-29T00:32:38.479Z,98061.00
2023-04-29T00:35:07.320Z,98067.00
2023-04-29T00:37:35.807Z,98068.00
2023-04-29T00:40:04.392Z,98065.00
2023-04-29T00:42:33.265Z,98054.00
2023-04-29T00:45:01.285Z,98059.00
2023-04-29T00:47:30.732Z,98062.00
2023-04-29T00:49:58.778Z,98055.00
2023-04-29T00:52:27.424Z,98056.00
2023-04-29T00:54:55.468Z,98066.00
2023-04-29T00:57:23.506Z,98067.00
2023-04-29T00:59:51.667Z,98059.00
2023-04-29T01:02:19.937Z,98065.00
2023-04-29T01:04:49.424Z,98068.00
2023-04-29T01:07:18.733Z,98065.00
2023-04-29T01:09:55.570Z,98066.00
2023-04-29T01:12:29.100Z,98066.00
2023-04-29T01:15:04.061Z,98058.00
2023-04-29T01:17:32.980Z,98065.00
2023-04-29T01:20:02.436Z,98067.00
2023-04-29T01:22:30.427Z,98066.00
2023-04-29T01:24:59.984Z,98062.00
2023-04-29T01:27:31.023Z,98055.00
2023-04-29T01:30:02.384Z,98071.00
2023-04-29T01:32:38.851Z,98067.00
2023-04-29T01:35:11.750Z,98057.00
2023-04-29T01:37:43.150Z,98063.00
2023-04-29T01:40:13.904Z,98063.00
2023-04-29T01:42:46.065Z,98066.00
2023-04-29T01:45:17.926Z,98060.00
2023-04-29T01:47:46.402Z,98064.00
2023-04-29T01:50:14.532Z,98071.00
2023-04-29T01:52:42.796Z,98065.00
2023-04-29T01:55:12.494Z,98064.00
2023-04-29T01:57:40.554Z,98069.00
2023-04-29T02:00:11.708Z,98062.00
2023-04-29T02:02:39.901Z,98057.00
2023-04-29T02:05:09.834Z,98076.00
2023-04-29T02:07:37.872Z,98068.00
2023-04-29T02:10:06.796Z,98069.00
2023-04-29T02:12:36.673Z,98077.00
2023-04-29T02:15:05.149Z,98073.00
2023-04-29T02:17:34.630Z,98065.00
2023-04-29T02:20:02.723Z,98075.00
2023-04-29T02:22:30.709Z,98073.00
2023-04-29T02:24:58.729Z,98076.00
2023-04-29T02:27:27.274Z,98080.00
2023-04-29T02:29:56.672Z,98084.00
2023-04-29T02:32:24.807Z,98080.00
2023-04-29T02:34:53.099Z,98076.00
2023-04-29T02:37:21.257Z,98086.00
2023-04-29T02:39:49.357Z,98093.00
2023-04-29T02:42:17.377Z,98085.00
2023-04-29T02:44:45.446Z,98087.00
2023-04-29T02:47:15.284Z,98085.00
2023-04-29T02:49:43.301Z,98087.00
2023-04-29T02:52:11.305Z,98091.00
2023-04-29T02:54:39.344Z,98092.00
2023-04-29T02:57:08.028Z,98089.00
2023-04-29T02:59:36.168Z,98094.00
2023-04-29T03:02:04.312Z,98095.00
2023-04-29T03:04:33.899Z,98098.00
2023-04-29T03:07:02.018Z,98100.00
2023-04-29T03:09:30.821Z,98098.00
2023-04-29T03:11:58.975Z,98102.00
2023-04-29T03:14:27.073Z,98090.00
2023-04-29T03:16:56.436Z,98098.00
2023-04-29T03:19:24.514Z,98099.00
2023-04-29T03:21:54.162Z,98098.00
2023-04-29T03:24:22.662Z,98090.00
2023-04-29T03:26:50.716Z,98095.00
2023-04-29T03:29:18.769Z,98088.00
2023-04-29T03:31:47.109Z,98098.00
2023-04-29T03:34:15.378Z,98092.00
2023-04-29T03:36:43.396Z,98091.00
2023-04-29T03:39:12.991Z,98093.00
2023-04-29T03:41:41.078Z,98096.00
2023-04-29T03:44:09.236Z,98093.00
2023-04-29T03:46:37.332Z,98096.00
2023-04-29T03:49:05.497Z,98089.00
2023-04-29T03:51:33.519Z,98097.00
2023-04-29T03:54:01.838Z,98099.00
2023-04-29T03:56:31.335Z,98097.00
2023-04-29T03:58:59.375Z,98097.00
2023-04-29T04:01:27.429Z,98103.00
2023-04-29T04:03:55.700Z,98078.00
2023-04-29T04:06:23.813Z,98097.00
2023-04-29T04:08:51.861Z,98102.00
2023-04-29T04:11:19.930Z,98123.00
2023-04-29T04:13:49.866Z,98115.00
2023-04-29T04:16:17.967Z,98115.00
2023-04-29T04:18:46.038Z,98118.00
2023-04-29T04:21:14.117Z,98122.00
2023-04-29T04:23:42.140Z,98128.00
2023-04-29T04:26:10.183Z,98136.00
2023-04-29T04:28:38.213Z,98139.00
2023-04-29T04:31:08.093Z,98145.00
2023-04-29T04:33:36.363Z,98141.00
2023-04-29T04:36:04.490Z,98146.00
2023-04-29T04:38:33.181Z,98148.00
2023-04-29T04:41:01.322Z,98154.00
2023-04-29T04:43:29.305Z,98156.00
2023-04-29T04:45:57.526Z,98147.00
2023-04-29T04:48:27.136Z,98149.00
2023-04-29T04:50:55.168Z,98152.00
2023-04-29T04:53:23.839Z,98141.00
2023-04-29T04:55:51.903Z,98156.00
2023-04-29T04:58:19.930Z,98167.00
2023-04-29T05:00:48.333Z,98154.00
2023-04-29T05:03:17.075Z,98153.00
2023-04-29T05:05:46.544Z,98169.00
2023-04-29T05:08:14.568Z,98157.00
2023-04-29T05:10:44.490Z,98154.00
2023-04-29T05:13:12.663Z,98165.00
2023-04-29T05:15:40.716Z,98159.00
2023-04-29T05:18:08.792Z,98163.00
2023-04-29T05:20:37.181Z,98155.00
2023-04-29T05:23:06.600Z,98157.00
2023-04-29T05:25:34.620Z,98156.00
2023-04-29T05:28:03.524Z,98165.00
2023-04-29T05:30:31.553Z,98160.00
2023-04-29T05:32:59.784Z,98167.00
2023-04-29T05:35:27.909Z,98156.00
2023-04-29T05:37:55.919Z,98165.00
2023-04-29T05:40:25.294Z,98163.00
2023-04-29T05:42:53.303Z,98170.00
2023-04-29T05:45:21.340Z,98167.00
2023-04-29T05:47:49.415Z,98170.00
2023-04-29T05:50:17.908Z,98160.00
2023-04-29T05:52:45.952Z,98172.00
2023-04-29T05:55:14.013Z,98164.00
2023-04-29T05:57:43.630Z,98184.00
2023-04-29T06:00:12.630Z,98177.00
2023-04-29T06:02:54.814Z,98187.00
2023-04-29T06:05:23.481Z,98187.00
2023-04-29T06:07:52.009Z,98203.00
2023-04-29T06:10:20.189Z,98203.00
2023-04-29T06:12:51.590Z,98160.00
2023-04-29T06:15:19.664Z,98195.00
2023-04-29T06:17:48.756Z,98197.00
2023-04-29T06:20:18.232Z,98197.00
2023-04-29T06:22:46.510Z,98205.00
2023-04-29T06:25:15.072Z,98203.00
2023-04-29T06:27:43.053Z,98201.00
2023-04-29T06:30:13.285Z,98197.00
2023-04-29T06:32:41.337Z,98211.00
2023-04-29T06:35:10.092Z,98196.00
2023-04-29T06:37:38.338Z,98206.00
2023-04-29T06:40:07.808Z,98215.00
2023-04-29T06:42:36.801Z,98215.00
2023-04-29T06:45:05.366Z,98216.00
2023-04-29T06:47:34.834Z,98217.00
2023-04-29T06:50:03.170Z,98228.00
2023-04-29T06:52:31.432Z,98222.00
2023-04-29T06:54:59.518Z,98232.00
2023-04-29T06:57:27.531Z,98232.00
2023-04-29T06:59:55.565Z,98237.00
2023-04-29T07:02:23.675Z,98237.00
2023-04-29T07:04:53.220Z,98233.00
2023-04-29T07:07:21.409Z,98233.00
2023-04-29T07:09:52.149Z,98227.00
2023-04-29T07:12:20.444Z,98246.00
2023-04-29T07:14:48.504Z,98245.00
2023-04-29T07:17:16.652Z,98251.00
2023-04-29T07:19:44.751Z,98249.00
2023-04-29T07:22:19.858Z,98251.00
2023-04-29T07:24:47.880Z,98254.00
2023-04-29T07:27:16.375Z,98261.00
2023-04-29T07:29:44.421Z,98256.00
2023-04-29T07:32:12.792Z,98263.00
2023-04-29T07:34:40.865Z,98266.00
2023-04-29T07:37:09.851Z,98270.00
2023-04-29T07:39:39.294Z,98270.00
2023-04-29T07:42:07.353Z,98272.00
2023-04-29T07:44:36.343Z,98274.00
2023-04-29T07:47:04.380Z,98275.00
2023-04-29T07:49:32.526Z,98283.00
2023-04-29T07:52:00.570Z,98286.00
2023-04-29T07:54:28.587Z,98290.00
2023-04-29T07:56:59.009Z,98302.00
2023-04-29T07:59:27.011Z,98296.00
2023-04-29T08:01:55.707Z,98299.00
2023-04-29T08:04:23.993Z,98299.00
2023-04-29T08:06:52.209Z,98297.00
2023-04-29T08:09:20.535Z,98310.00
2023-04-29T08:11:48.601Z,98300.00
2023-04-29T08:14:18.010Z,98307.00
2023-04-29T08:16:46.522Z,98304.00
2023-04-29T08:19:14.544Z,98303.00
2023-04-29T08:21:42.734Z,98315.00
2023-04-29T08:24:10.879Z,98309.00
2023-04-29T08:26:40.753Z,98313.00
2023-04-29T08:29:08.904Z,98321.00
2023-04-29T08:31:38.465Z,98322.00
2023-04-29T08:34:06.712Z,98320.00
2023-04-29T08:36:35.045Z,98318.00
2023-04-29T08:39:03.130Z,98320.00
2023-04-29T08:41:32.887Z,98330.00
2023-04-29T08:44:01.156Z,98328.00
2023-04-29T08:46:29.493Z,98339.00
2023-04-29T08:48:58.920Z,98332.00
2023-04-29T08:51:26.953Z,98341.00
2023-04-29T08:53:55.258Z,98336.00
2023-04-29T08:56:23.291Z,98348.00
2023-04-29T08:58:54.426Z,98340.00
2023-04-29T09:01:26.230Z,98346.00
2023-04-29T09:03:57.915Z,98351.00
2023-04-29T09:06:28.951Z,98348.00
2023-04-29T09:08:59.826Z,98349.00
2023-04-29T09:11:28.870Z,98348.00
2023-04-29T09:14:00.270Z,98347.00
2023-04-29T09:16:28.523Z,98354.00
2023-04-29T09:18:56.977Z,98360.00
2023-04-29T09:21:27.391Z,98358.00
2023-04-29T09:23:56.126Z,98354.00
2023-04-29T09:26:24.261Z,98356.00
2023-04-29T09:29:07.408Z,98358.00
2023-04-29T09:31:35.496Z,98358.00
2023-04-29T09:34:03.597Z,98362.00
2023-04-29T09:36:40.892Z,98368.00
2023-04-29T09:39:11.876Z,98376.00
2023-04-29T09:41:41.398Z,98370.00
2023-04-29T09:44:10.107Z,98363.00
2023-04-29T09:46:38.725Z,98379.00
2023-04-29T09:49:23.987Z,98392.00
2023-04-29T09:51:57.133Z,98376.00
2023-04-29T09:54:28.792Z,98371.00
2023-04-29T09:56:57.470Z,98377.00
2023-04-29T09:59:25.704Z,98371.00
2023-04-29T10:01:55.135Z,98372.00
2023-04-29T10:04:24.232Z,98373.00
2023-04-29T10:06:53.032Z,98380.00
2023-04-29T10:09:23.196Z,98373.00
2023-04-29T10:11:53.034Z,98384.00
2023-04-29T10:14:22.056Z,98383.00
2023-04-29T10:16:51.111Z,98390.00
2023-04-29T10:19:27.658Z,98381.00
2023-04-29T10:21:56.264Z,98383.00
2023-04-29T10:24:25.733Z,98389.00
2023-04-29T10:26:54.042Z,98392.00
2023-04-29T10:29:22.102Z,98389.00
2023-04-29T10:31:50.781Z,98388.00
2023-04-29T10:34:19.035Z,98391.00
2023-04-29T10:36:48.050Z,98388.00
2023-04-29T10:39:21.940Z,98398.00
2023-04-29T10:41:51.360Z,98392.00
2023-04-29T10:44:19.756Z,98398.00
2023-04-29T10:46:48.101Z,98398.00
2023-04-29T10:49:16.164Z,98390.00
2023-04-29T10:51:46.936Z,98387.00
2023-04-29T10:54:15.668Z,98398.00
2023-04-29T10:56:44.753Z,98395.00
2023-04-29T10:59:15.076Z,98387.00
2023-04-29T11:01:53.287Z,98397.00
2023-04-29T11:04:21.741Z,98405.00
2023-04-29T11:06:53.096Z,98405.00
2023-04-29T11:09:22.349Z,98404.00
2023-04-29T11:12:04.181Z,98406.00
2023-04-29T11:14:37.892Z,98411.00
2023-04-29T11:17:06.739Z,98401.00
2023-04-29T11:19:35.120Z,98411.00
2023-04-29T11:22:26.872Z,98417.00
2023-04-29T11:24:56.689Z,98416.00
2023-04-29T11:27:26.534Z,98425.00
2023-04-29T11:29:58.708Z,98417.00
2023-04-29T11:32:27.502Z,98430.00
2023-04-29T11:34:56.253Z,98427.00
2023-04-29T11:37:25.764Z,98430.00
2023-04-29T11:40:00.165Z,98437.00
2023-04-29T11:42:28.505Z,98434.00
2023-04-29T11:44:59.524Z,98449.00
2023-04-29T11:47:29.144Z,98449.00
2023-04-29T11:50:03.909Z,98450.00
2023-04-29T11:52:31.975Z,98455.00
2023-04-29T11:55:00.298Z,98459.00
2023-04-29T11:57:28.498Z,98463.00
2023-04-29T11:59:58.507Z,98464.00
2023-04-29T12:02:30.821Z,98458.00
2023-04-29T12:05:01.335Z,98461.00
2023-04-29T12:07:31.382Z,98465.00
2023-04-29T12:10:00.430Z,98463.00
2023-04-29T12:12:29.282Z,98456.00
2023-04-29T12:14:58.804Z,98458.00
2023-04-29T12:17:26.934Z,98463.00
2023-04-29T12:19:54.948Z,98462.00
2023-04-29T12:22:22.966Z,98467.00
2023-04-29T12:24:54.534Z,98456.00
2023-04-29T12:27:22.819Z,98450.00
2023-04-29T12:29:52.949Z,98467.00
2023-04-29T12:32:25.232Z,98454.00
2023-04-29T12:34:53.749Z,98462.00
2023-04-29T12:37:22.874Z,98468.00
2023-04-29T12:39:51.101Z,98473.00
2023-04-29T12:42:19.247Z,98465.00
2023-04-29T12:44:48.229Z,98466.00
2023-04-29T12:47:16.519Z,98477.00
2023-04-29T12:49:46.470Z,98451.00
2023-04-29T12:52:14.518Z,98477.00
2023-04-29T12:54:50.751Z,98466.00
2023-04-29T12:57:18.903Z,98477.00
2023-04-29T12:59:47.103Z,98475.00
2023-04-29T13:02:15.306Z,98467.00
2023-04-29T13:04:45.297Z,98469.00
2023-04-29T13:07:13.539Z,98472.00
2023-04-29T13:09:41.907Z,98474.00
2023-04-29T13:12:09.969Z,98470.00
2023-04-29T13:14:38.033Z,98470.00
2023-04-29T13:17:06.420Z,98472.00
2023-04-29T13:19:48.066Z,98470.00
2023-04-29T13:22:19.596Z,98470.00
2023-04-29T13:24:47.770Z,98468.00
2023-04-29T13:27:15.822Z,98467.00
2023-04-29T13:29:43.945Z,98462.00
2023-04-29T13:32:12.571Z,98473.00
2023-04-29T13:34:43.280Z,98464.00
2023-04-29T13:37:11.792Z,98468.00
2023-04-29T13:39:45.579Z,98471.00
2023-04-29T13:42:15.832Z,98471.00
2023-04-29T13:44:52.586Z,98476.00
2023-04-29T13:47:26.248Z,98478.00
2023-04-29T13:50:25.608Z,98479.00
2023-04-29T13:56:01.661Z,98477.00
2023-04-29T14:03:07.074Z,98493.00
2023-04-29T14:05:35.402Z,98494.00
2023-04-29T14:08:03.836Z,98489.00
2023-04-29T14:10:33.284Z,98485.00
2023-04-29T14:13:01.527Z,98490.00
2023-04-29T14:15:29.550Z,98489.00
2023-04-29T14:17:57.620Z,98490.00
2023-04-29T14:20:25.689Z,98493.00
2023-04-29T14:22:54.329Z,98494.00
2023-04-29T14:25:22.434Z,98504.00
2023-04-29T14:27:51.914Z,98494.00
2023-04-29T14:30:20.039Z,98508.00
2023-04-29T14:32:48.161Z,98511.00
2023-04-29T14:35:16.308Z,98501.00
2023-04-29T14:37:44.385Z,98513.00
2023-04-29T14:40:12.809Z,98505.00
2023-04-29T14:42:40.824Z,98507.00
2023-04-29T14:45:11.465Z,98505.00
2023-04-29T14:47:39.573Z,98516.00
2023-04-29T14:50:09.840Z,98524.00
2023-04-29T14:52:37.872Z,98518.00
2023-04-29T14:55:06.331Z,98517.00
2023-04-29T14:57:34.641Z,98514.00
2023-04-29T15:00:02.806Z,98519.00
2023-04-29T15:02:32.275Z,98517.00
2023-04-29T15:05:00.344Z,98535.00
2023-04-29T15:07:31.588Z,98524.00
2023-04-29T15:09:59.857Z,98530.00
2023-04-29T15:12:27.884Z,98530.00
2023-04-29T15:14:56.353Z,98518.00
2023-04-29T15:17:24.564Z,98523.00
2023-04-29T15:19:54.216Z,98524.00
2023-04-29T15:22:22.390Z,98534.00
2023-04-29T15:24:52.203Z,98528.00
2023-04-29T15:27:21.483Z,98534.00
2023-04-29T15:29:49.613Z,98539.00
2023-04-29T15:32:17.789Z,98543.00
2023-04-29T15:34:45.946Z,98539.00
2023-04-29T15:37:15.503Z,98542.00
2023-04-29T15:39:43.585Z,98546.00
2023-04-29T15:42:11.643Z,98560.00
2023-04-29T15:44:39.714Z,98553.00
2023-04-29T15:47:07.774Z,98558.00
2023-04-29T15:49:39.348Z,98557.00
2023-04-29T15:52:07.396Z,98568.00
2023-04-29T15:54:36.819Z,98566.00
2023-04-29T15:57:05.044Z,98571.00
2023-04-29T15:59:33.733Z,98577.00
2023-04-29T16:02:03.213Z,98576.00
2023-04-29T16:04:32.123Z,98569.00
2023-04-29T16:07:01.577Z,98584.00
2023-04-29T16:09:29.899Z,98580.00
2023-04-29T16:11:59.522Z,98593.00
2023-04-29T16:14:27.638Z,98594.00
2023-04-29T16:16:56.008Z,98602.00
2023-04-29T16:19:24.140Z,98600.00
2023-04-29T16:21:52.595Z,98601.00
2023-04-29T16:24:21.009Z,98617.00
2023-04-29T16:26:49.416Z,98618.00
2023-04-29T16:29:18.978Z,98619.00
2023-04-29T16:31:47.166Z,98622.00
2023-04-29T16:34:15.493Z,98621.00
2023-04-29T16:36:43.564Z,98626.00
2023-04-29T16:39:11.687Z,98624.00
2023-04-29T16:41:39.842Z,98624.00
2023-04-29T16:44:07.956Z,98624.00
2023-04-29T16:46:37.493Z,98625.00
2023-04-29T16:49:05.897Z,98633.00
2023-04-29T16:51:34.565Z,98637.00
2023-04-29T16:54:02.858Z,98630.00
2023-04-29T16:56:36.817Z,98631.00
2023-04-29T16:59:05.859Z,98647.00
2023-04-29T17:01:34.040Z,98635.00
2023-04-29T17:04:04.110Z,98640.00
2023-04-29T17:06:32.390Z,98634.00
2023-04-29T17:09:00.662Z,98648.00
2023-04-29T17:11:28.733Z,98648.00
2023-04-29T17:13:56.837Z,98653.00
2023-04-29T17:16:26.492Z,98652.00
2023-04-29T17:18:55.706Z,98647.00
2023-04-29T17:21:26.144Z,98655.00
2023-04-29T17:23:54.281Z,98650.00
2023-04-29T17:26:22.839Z,98655.00
2023-04-29T17:28:50.996Z,98655.00
2023-04-29T17:31:20.872Z,98651.00
2023-04-29T17:33:55.175Z,98647.00
2023-04-29T17:36:23.387Z,98654.00
2023-04-29T17:38:52.817Z,98659.00
2023-04-29T17:41:20.908Z,98658.00
2023-04-29T17:43:49.017Z,98663.00
2023-04-29T17:46:17.280Z,98664.00
2023-04-29T17:48:47.256Z,98658.00
2023-04-29T17:51:15.501Z,98656.00
2023-04-29T17:53:43.719Z,98659.00
2023-04-29T17:56:13.213Z,98671.00
2023-04-29T17:58:41.364Z,98665.00
2023-04-29T18:01:09.530Z,98668.00
2023-04-29T18:03:37.712Z,98666.00
2023-04-29T18:06:10.423Z,98664.00
2023-04-29T18:08:42.016Z,98667.00
2023-04-29T18:11:13.253Z,98684.00
2023-04-29T18:13:43.011Z,98680.00
2023-04-29T18:16:11.159Z,98683.00
2023-04-29T18:18:39.310Z,98681.00
2023-04-29T18:21:07.367Z,98682.00
2023-04-29T18:23:35.802Z,98679.00
2023-04-29T18:26:04.332Z,98689.00
2023-04-29T18:28:34.108Z,98693.00
2023-04-29T18:31:06.794Z,98690.00
2023-04-29T18:33:36.946Z,98690.00
2023-04-29T18:36:05.392Z,98687.00
2023-04-29T18:38:33.737Z,98696.00
2023-04-29T18:41:01.931Z,98708.00
2023-04-29T18:43:30.016Z,98703.00
2023-04-29T18:45:58.251Z,98705.00
2023-04-29T18:48:28.793Z,98708.00
2023-04-29T18:50:59.172Z,98715.00
2023-04-29T18:53:27.464Z,98721.00
2023-04-29T18:55:55.572Z,98728.00
2023-04-29T18:58:26.034Z,98722.00
2023-04-29T19:00:54.190Z,98732.00
2023-04-29T19:03:22.879Z,98736.00
2023-04-29T19:05:52.481Z,98731.00
2023-04-29T19:08:20.623Z,98741.00
2023-04-29T19:10:48.798Z,98753.00
2023-04-29T19:13:17.369Z,98745.00
2023-04-29T19:15:45.866Z,98740.00
2023-04-29T19:18:14.048Z,98743.00
2023-04-29T19:20:42.718Z,98743.00
2023-04-29T19:23:12.186Z,98753.00
2023-04-29T19:25:40.356Z,98759.00
2023-04-29T19:28:08.474Z,98749.00
2023-04-29T19:30:36.640Z,98761.00
2023-04-29T19:33:04.959Z,98752.00
2023-04-29T19:35:33.124Z,98757.00
2023-04-29T19:38:01.346Z,98754.00
2023-04-29T19:40:30.812Z,98764.00
2023-04-29T19:42:58.888Z,98764.00
2023-04-29T19:45:27.366Z,98760.00
2023-04-29T19:47:55.841Z,98767.00
2023-04-29T19:50:24.095Z,98761.00
2023-04-29T19:52:52.201Z,98762.00
2023-04-29T19:55:20.469Z,98761.00
2023-04-29T19:57:51.289Z,98765.00
2023-04-29T20:00:19.556Z,98762.00
2023-04-29T20:02:50.780Z,98769.00
2023-04-29T20:05:19.769Z,98761.00
2023-04-29T20:07:47.839Z,98758.00
2023-04-29T20:10:15.918Z,98761.00
2023-04-29T20:12:43.995Z,98760.00
2023-04-29T20:15:13.560Z,98768.00
2023-04-29T20:17:41.720Z,98769.00
2023-04-29T20:20:10.814Z,98775.00
2023-04-29T20:22:39.066Z,98771.00
2023-04-29T20:25:07.943Z,98772.00
2023-04-29T20:27:36.304Z,98777.00
2023-04-29T20:30:05.406Z,98779.00
2023-04-29T20:32:35.168Z,98799.00
2023-04-29T20:35:03.276Z,98779.00
2023-04-29T20:37:31.879Z,98783.00
2023-04-29T20:39:59.999Z,98785.00
2023-04-29T20:42:28.498Z,98778.00
2023-04-29T20:44:56.703Z,98783.00
2023-04-29T20:47:24.764Z,98786.00
2023-04-29T20:49:54.283Z,98788.00
2023-04-29T20:52:22.514Z,98779.00
2023-04-29T20:54:51.881Z,98783.00
2023-04-29T20:57:20.173Z,98785.00
2023-04-29T20:59:48.234Z,98787.00
2023-04-29T21:02:16.281Z,98791.00
2023-04-29T21:04:44.392Z,98785.00
2023-04-29T21:07:13.821Z,98785.00
2023-04-29T21:09:41.877Z,98788.00
2023-04-29T21:12:09.908Z,98788.00
2023-04-29T21:14:39.403Z,98800.00
2023-04-29T21:17:08.348Z,98803.00
2023-04-29T21:19:36.761Z,98801.00
2023-04-29T21:22:05.913Z,98810.00
2023-04-29T21:24:35.496Z,98798.00
2023-04-29T21:27:03.787Z,98796.00
2023-04-29T21:29:32.337Z,98801.00
2023-04-29T21:32:00.402Z,98800.00
2023-04-29T21:34:28.433Z,98797.00
2023-04-29T21:36:56.814Z,98813.00
2023-04-29T21:39:24.893Z,98800.00
2023-04-29T21:41:55.002Z,98810.00
2023-04-29T21:44:23.018Z,98805.00
2023-04-29T21:46:51.175Z,98812.00
2023-04-29T21:49:19.257Z,98808.00
2023-04-29T21:51:47.324Z,98811.00
2023-04-29T21:54:15.387Z,98816.00
2023-04-29T21:56:43.424Z,98816.00
2023-04-29T21:59:12.865Z,98821.00
2023-04-29T22:01:48.548Z,98816.00
2023-04-29T22:04:17.137Z,98830.00
2023-04-29T22:06:45.198Z,98826.00
2023-04-29T22:09:13.371Z,98827.00
2023-04-29T22:11:41.427Z,98826.00
2023-04-29T22:14:09.455Z,98830.00
2023-04-29T22:16:38.933Z,98831.00
2023-04-29T22:19:07.225Z,98826.00
2023-04-29T22:21:35.422Z,98826.00
2023-04-29T22:24:03.438Z,98828.00
2023-04-29T22:26:31.764Z,98836.00
2023-04-29T22:29:00.145Z,98828.00
2023-04-29T22:31:28.357Z,98826.00
2023-04-29T22:33:57.832Z,98826.00
2023-04-29T22:36:25.973Z,98832.00
2023-04-29T22:38:54.083Z,98827.00
2023-04-29T22:41:22.069Z,98826.00
2023-04-29T22:43:50.882Z,98813.00
2023-04-29T22:46:18.952Z,98830.00
2023-04-29T22:48:47.093Z,98826.00
2023-04-29T22:51:16.587Z,98832.00
2023-04-29T22:53:44.582Z,98840.00
2023-04-29T22:56:12.634Z,98830.00
2023-04-29T22:58:41.299Z,98839.00
2023-04-29T23:01:11.354Z,98846.00
2023-04-29T23:03:40.039Z,98841.00
2023-04-29T23:06:08.339Z,98845.00
2023-04-29T23:08:37.749Z,98842.00
2023-04-29T23:11:05.878Z,98848.00
2023-04-29T23:13:33.901Z,98842.00
2023-04-29T23:16:02.162Z,98849.00
2023-04-29T23:18:30.792Z,98848.00
2023-04-29T23:20:58.850Z,98850.00
2023-04-29T23:23:26.951Z,98850.00
2023-04-29T23:25:56.399Z,98859.00
2023-04-29T23:28:24.818Z,98860.00
2023-04-29T23:30:52.950Z,98863.00
2023-04-29T23:33:21.122Z,98860.00
2023-04-29T23:35:50.647Z,98853.00
2023-04-29T23:38:18.882Z,98856.00
2023-04-29T23:40:47.424Z,98848.00
2023-04-29T23:43:16.871Z,98854.00
2023-04-29T23:45:45.737Z,98856.00
2023-04-29T23:48:13.980Z,98858.00
2023-04-29T23:50:42.007Z,98861.00
2023-04-29T23:53:10.021Z,98851.00
2023-04-29T23:55:38.037Z,98846.00
2023-04-29T23:58:06.089Z,98852.00
